Time;durP1;ratioP1;P1;durP2;ratioP2;P2;SDS_P1;SDS_P2;PMS_P1;PMS_P2;Temp;Humidity;BMP_temperature;BMP_pressure;BME280_temperature;BME280_humidity;BME280_pressure;Samples;Min_cycle;Max_cycle;Signal;HPM_P1;HPM_P2
2022/06/27 00:00:31;;;;;;;12.63;11.53;;;20.20;99.90;;;;;;5132708;28;20179;-74
2022/06/27 00:02:56;;;;;;;14.10;13.00;;;20.20;99.90;;;;;;5131899;28;20534;-70
2022/06/27 00:05:22;;;;;;;13.40;12.40;;;20.20;99.90;;;;;;5131575;27;20187;-70
2022/06/27 00:07:48;;;;;;;13.80;12.50;;;20.20;99.90;;;;;;5132793;28;20239;-70
2022/06/27 00:10:14;;;;;;;12.50;11.60;;;20.20;99.90;;;;;;5132987;28;20171;-70
2022/06/27 00:12:40;;;;;;;11.57;10.60;;;20.10;99.90;;;;;;5132318;28;20540;-70
2022/06/27 00:15:07;;;;;;;11.20;10.40;;;20.10;99.90;;;;;;5112621;27;20715;-70
2022/06/27 00:17:33;;;;;;;11.80;10.90;;;20.10;99.90;;;;;;5115743;28;20468;-70
2022/06/27 00:19:59;;;;;;;13.00;12.00;;;20.10;99.90;;;;;;5126532;27;20436;-70
2022/06/27 00:22:26;;;;;;;11.17;10.37;;;19.80;99.90;;;;;;5136088;27;20301;-70
2022/06/27 00:24:55;;;;;;;12.07;11.27;;;19.70;99.90;;;;;;5135181;27;20205;-70
2022/06/27 00:27:20;;;;;;;12.60;11.80;;;19.60;99.90;;;;;;5137295;27;20431;-70
2022/06/27 00:29:46;;;;;;;12.50;11.70;;;19.60;99.90;;;;;;5135016;27;20930;-70
2022/06/27 00:32:12;;;;;;;11.97;10.90;;;19.60;99.90;;;;;;5136759;27;20290;-70
2022/06/27 00:34:38;;;;;;;11.97;11.10;;;19.70;99.90;;;;;;5133617;27;20190;-70
2022/06/27 00:37:04;;;;;;;12.67;11.60;;;19.70;99.90;;;;;;5136890;27;20202;-70
2022/06/27 00:39:30;;;;;;;11.60;10.67;;;19.80;99.90;;;;;;5135323;27;20432;-73
2022/06/27 00:41:56;;;;;;;12.60;11.70;;;19.80;99.90;;;;;;5136134;27;20409;-70
2022/06/27 00:44:37;;;;;;;13.10;11.80;;;19.90;99.90;;;;;;5123855;27;20482;-71
2022/06/27 00:47:09;;;;;;;12.47;11.30;;;19.90;99.90;;;;;;5130950;27;20274;-70
2022/06/27 00:49:35;;;;;;;13.67;12.67;;;20.00;99.90;;;;;;5136042;27;20405;-71
2022/06/27 00:52:06;;;;;;;13.60;12.70;;;20.00;99.90;;;;;;5136833;27;20404;-70
2022/06/27 00:54:33;;;;;;;13.57;12.60;;;20.10;99.90;;;;;;5134868;27;20425;-74
2022/06/27 00:56:59;;;;;;;12.50;11.60;;;20.10;99.90;;;;;;5136064;27;20456;-70
2022/06/27 00:59:24;;;;;;;13.40;12.47;;;20.20;99.90;;;;;;5136476;27;20464;-70
2022/06/27 01:01:50;;;;;;;13.10;12.20;;;20.20;99.90;;;;;;5135605;27;20171;-70
2022/06/27 01:04:16;;;;;;;14.37;13.20;;;20.20;99.90;;;;;;5136414;27;20259;-71
2022/06/27 01:06:42;;;;;;;13.43;12.50;;;20.20;99.90;;;;;;5135636;27;20182;-71
2022/06/27 01:09:08;;;;;;;13.77;12.80;;;20.20;99.90;;;;;;5136395;27;20405;-70
2022/06/27 01:11:34;;;;;;;14.83;13.53;;;20.20;99.90;;;;;;5136028;27;20179;-74
2022/06/27 01:14:00;;;;;;;15.57;14.37;;;20.30;99.90;;;;;;5120712;27;20188;-70
2022/06/27 01:16:26;;;;;;;17.10;15.60;;;20.30;99.90;;;;;;5114316;28;20549;-70
2022/06/27 01:18:52;;;;;;;16.57;15.37;;;20.30;99.90;;;;;;5114877;28;20409;-70
2022/06/27 01:21:23;;;;;;;15.87;14.67;;;20.30;99.90;;;;;;5122024;27;20471;-70
2022/06/27 01:23:50;;;;;;;17.60;16.17;;;20.30;99.90;;;;;;5135533;27;20783;-70
2022/06/27 01:26:17;;;;;;;17.77;16.37;;;20.30;99.90;;;;;;5131212;27;20446;-70
2022/06/27 01:28:43;;;;;;;15.80;14.53;;;20.30;99.90;;;;;;5135138;27;20443;-70
2022/06/27 01:31:13;;;;;;;16.30;15.13;;;20.30;99.90;;;;;;5134412;27;20436;-70
2022/06/27 01:33:39;;;;;;;16.30;14.97;;;20.40;99.90;;;;;;5112604;27;20436;-70
2022/06/27 01:38:51;;;;;;;16.77;15.20;;;20.40;99.90;;;;;;5117581;27;20433;-70
2022/06/27 01:41:19;;;;;;;14.70;13.60;;;20.30;99.90;;;;;;5135711;27;20416;-70
2022/06/27 01:43:49;;;;;;;15.57;14.27;;;20.30;99.90;;;;;;5134796;27;20409;-70
2022/06/27 01:46:16;;;;;;;15.77;14.47;;;20.30;99.90;;;;;;5120689;27;20563;-70
2022/06/27 01:48:42;;;;;;;14.20;13.10;;;20.30;99.90;;;;;;5113954;28;20827;-70
2022/06/27 01:51:09;;;;;;;15.70;14.50;;;20.30;99.90;;;;;;5114919;28;20429;-70
2022/06/27 01:53:39;;;;;;;14.47;13.10;;;20.30;99.90;;;;;;5114594;28;20229;-74
2022/06/27 01:56:05;;;;;;;14.53;13.40;;;20.20;99.90;;;;;;5114769;28;20420;-70
2022/06/27 01:58:32;;;;;;;14.17;13.07;;;20.30;99.90;;;;;;5114466;28;20967;-70
2022/06/27 02:00:58;;;;;;;14.07;12.97;;;20.30;99.90;;;;;;5112471;28;20420;-70
2022/06/27 02:03:24;;;;;;;14.10;13.00;;;20.40;99.90;;;;;;5114656;28;20415;-70
2022/06/27 02:05:53;;;;;;;13.47;12.37;;;20.40;99.90;;;;;;5108050;28;20267;-70
2022/06/27 02:08:23;;;;;;;14.20;13.10;;;20.40;99.90;;;;;;5094390;28;20169;-70
2022/06/27 02:10:49;;;;;;;14.07;12.93;;;20.40;99.90;;;;;;5092101;28;20422;-70
2022/06/27 02:13:15;;;;;;;14.47;13.17;;;20.40;99.90;;;;;;5093887;28;20455;-71
2022/06/27 02:16:07;;;;;;;12.77;11.87;;;20.40;99.90;;;;;;5107799;27;20425;-71
2022/06/27 02:18:34;;;;;;;15.23;14.13;;;20.40;99.90;;;;;;5092622;28;20216;-70
2022/06/27 02:21:00;;;;;;;14.17;13.17;;;20.40;99.90;;;;;;5125275;27;20464;-70
2022/06/27 02:23:26;;;;;;;14.00;13.00;;;20.40;99.90;;;;;;5134616;27;20884;-70
2022/06/27 02:25:53;;;;;;;13.80;12.90;;;20.40;99.90;;;;;;5133787;27;20959;-70
2022/06/27 02:28:22;;;;;;;14.77;13.43;;;20.50;99.90;;;;;;5134777;27;20461;-70
2022/06/27 02:30:48;;;;;;;15.23;14.13;;;20.40;99.90;;;;;;5133995;27;20411;-70
2022/06/27 02:33:13;;;;;;;15.50;14.37;;;20.40;99.90;;;;;;5132456;27;20424;-70
2022/06/27 02:35:40;;;;;;;16.40;15.00;;;20.50;99.90;;;;;;5134337;27;20404;-72
2022/06/27 02:38:09;;;;;;;14.80;13.50;;;20.40;99.90;;;;;;5132309;27;20254;-68
2022/06/27 02:40:37;;;;;;;15.13;14.07;;;20.40;99.90;;;;;;5134209;27;20404;-68
2022/06/27 02:43:06;;;;;;;15.30;14.10;;;20.40;99.90;;;;;;5134027;27;20417;-68
2022/06/27 02:45:33;;;;;;;16.47;15.10;;;20.40;99.90;;;;;;5123613;27;20432;-68
2022/06/27 02:48:01;;;;;;;15.70;14.23;;;20.40;99.90;;;;;;5111492;28;20420;-68
2022/06/27 02:50:29;;;;;;;16.47;15.07;;;20.40;99.90;;;;;;5113835;28;20445;-68
2022/06/27 02:52:56;;;;;;;17.10;15.60;;;20.40;99.90;;;;;;5112690;28;20829;-68
2022/06/27 02:55:27;;;;;;;15.90;14.80;;;20.40;99.90;;;;;;5113669;28;20398;-68
2022/06/27 02:58:02;;;;;;;16.30;15.00;;;20.30;99.90;;;;;;5112814;27;20484;-68
2022/06/27 03:00:29;;;;;;;17.10;15.60;;;20.30;99.90;;;;;;5134169;27;20420;-68
2022/06/27 03:02:56;;;;;;;16.43;15.13;;;20.30;99.90;;;;;;5133295;27;20419;-68
2022/06/27 03:05:22;;;;;;;17.27;15.83;;;20.30;99.90;;;;;;5132473;27;20456;-68
2022/06/27 03:07:48;;;;;;;15.50;14.30;;;20.30;99.90;;;;;;5133212;27;20519;-68
2022/06/27 03:10:14;;;;;;;16.87;15.57;;;20.30;99.90;;;;;;5132574;27;20520;-68
2022/06/27 03:12:40;;;;;;;18.27;16.77;;;20.30;99.90;;;;;;5133654;27;20178;-72
2022/06/27 03:15:06;;;;;;;16.67;15.47;;;20.20;99.90;;;;;;5126916;27;20474;-68
2022/06/27 03:17:32;;;;;;;18.30;16.70;;;20.30;99.90;;;;;;5110771;28;20483;-69
2022/06/27 03:19:58;;;;;;;16.57;15.17;;;20.30;99.90;;;;;;5112739;28;20520;-68
2022/06/27 03:22:24;;;;;;;16.67;15.37;;;20.20;99.90;;;;;;5113391;28;20644;-68
2022/06/27 03:24:50;;;;;;;17.50;16.10;;;20.20;99.90;;;;;;5117073;27;20302;-68
2022/06/27 03:27:15;;;;;;;18.17;16.40;;;20.30;99.90;;;;;;5133708;27;20409;-68
2022/06/27 03:29:41;;;;;;;17.80;16.30;;;20.30;99.90;;;;;;5132928;27;20536;-72
2022/06/27 03:32:10;;;;;;;17.60;16.10;;;20.30;99.90;;;;;;5133575;27;20203;-69
2022/06/27 03:34:36;;;;;;;18.27;16.63;;;20.30;99.90;;;;;;5133610;27;20834;-68
2022/06/27 03:37:02;;;;;;;18.77;17.17;;;20.30;99.90;;;;;;5133019;27;20305;-68
2022/06/27 03:39:27;;;;;;;18.10;16.50;;;20.30;99.90;;;;;;5133545;27;20175;-68
2022/06/27 03:41:53;;;;;;;17.37;15.97;;;20.30;99.90;;;;;;5132672;27;20171;-68
2022/06/27 03:44:19;;;;;;;19.73;18.23;;;20.30;99.90;;;;;;5130903;27;20678;-69
2022/06/27 03:46:44;;;;;;;17.37;16.00;;;20.30;99.90;;;;;;5117883;27;20187;-72
2022/06/27 03:51:55;;;;;;;16.33;14.90;;;20.30;99.90;;;;;;5121053;27;20585;-68
2022/06/27 03:54:21;;;;;;;14.97;13.77;;;20.30;99.90;;;;;;5131544;27;20942;-68
2022/06/27 03:56:47;;;;;;;14.57;13.17;;;20.30;99.90;;;;;;5132409;27;20490;-69
2022/06/27 03:59:13;;;;;;;15.23;13.83;;;20.30;99.90;;;;;;5131860;27;20423;-68
2022/06/27 04:01:39;;;;;;;17.20;16.00;;;20.30;99.90;;;;;;5131965;28;20762;-68
2022/06/27 04:04:05;;;;;;;13.03;11.93;;;20.30;99.90;;;;;;5114029;28;20524;-68
2022/06/27 04:06:32;;;;;;;17.10;15.70;;;20.30;99.90;;;;;;5131615;27;20987;-69
2022/06/27 04:08:58;;;;;;;12.17;11.17;;;20.40;99.90;;;;;;5130916;27;20424;-69
2022/06/27 04:11:24;;;;;;;14.93;13.73;;;20.40;99.90;;;;;;5133283;27;20417;-69
2022/06/27 04:13:49;;;;;;;14.40;13.27;;;20.30;99.90;;;;;;5132596;28;20478;-69
2022/06/27 04:16:15;;;;;;;14.97;13.87;;;20.30;99.90;;;;;;5114327;27;20180;-69
2022/06/27 04:18:41;;;;;;;15.80;14.60;;;20.30;99.90;;;;;;5112599;28;20310;-69
2022/06/27 04:21:06;;;;;;;15.63;14.40;;;20.40;99.90;;;;;;5111401;28;20652;-68
2022/06/27 04:23:32;;;;;;;13.93;12.87;;;20.40;99.90;;;;;;5112493;28;20246;-69
2022/06/27 04:25:58;;;;;;;14.37;13.17;;;20.40;99.90;;;;;;5111735;28;20183;-69
2022/06/27 04:28:24;;;;;;;17.67;16.17;;;20.40;99.90;;;;;;5112522;28;20266;-69
2022/06/27 04:30:49;;;;;;;14.83;13.63;;;20.30;99.90;;;;;;5111633;28;20168;-69
2022/06/27 04:33:16;;;;;;;15.83;14.33;;;20.30;99.90;;;;;;5117120;28;20179;-69
2022/06/27 04:35:42;;;;;;;14.40;13.03;;;20.30;99.90;;;;;;5131811;28;20180;-69
2022/06/27 04:38:10;;;;;;;16.63;15.33;;;20.30;99.90;;;;;;5131845;27;20459;-69
2022/06/27 04:40:36;;;;;;;14.00;11.63;;;20.30;99.90;;;;;;5131269;27;20881;-69
2022/06/27 04:43:02;;;;;;;15.30;14.10;;;20.30;99.90;;;;;;5132023;28;20417;-69
2022/06/27 04:45:28;;;;;;;14.00;12.80;;;20.30;99.90;;;;;;5113814;28;20175;-69
2022/06/27 04:47:54;;;;;;;14.00;12.70;;;20.30;99.90;;;;;;5126172;28;20198;-69
2022/06/27 04:50:22;;;;;;;14.50;13.40;;;20.30;99.90;;;;;;5131360;27;20440;-69
2022/06/27 04:52:49;;;;;;;13.03;12.07;;;20.30;99.90;;;;;;5131945;27;20646;-73
2022/06/27 04:55:15;;;;;;;13.50;12.40;;;20.40;99.90;;;;;;5132731;27;20757;-69
2022/06/27 04:57:42;;;;;;;12.43;11.43;;;20.30;99.90;;;;;;5132614;28;20459;-69
2022/06/27 05:00:13;;;;;;;12.93;11.73;;;20.40;99.90;;;;;;5125368;27;20175;-69
2022/06/27 05:02:40;;;;;;;12.13;11.00;;;20.30;99.90;;;;;;5109651;28;20575;-69
2022/06/27 05:05:07;;;;;;;10.90;9.90;;;20.40;99.90;;;;;;5114325;27;20992;-69
2022/06/27 05:07:33;;;;;;;11.70;10.80;;;20.40;99.90;;;;;;5136197;27;20896;-69
2022/06/27 05:09:59;;;;;;;11.87;10.93;;;20.40;99.90;;;;;;5128646;27;20437;-69
2022/06/27 05:12:29;;;;;;;15.80;14.50;;;20.40;99.90;;;;;;5104856;28;20175;-69
2022/06/27 05:14:58;;;;;;;11.70;10.60;;;20.50;99.90;;;;;;5111070;28;20737;-69
2022/06/27 05:17:27;;;;;;;12.23;11.13;;;20.50;99.90;;;;;;5115331;28;20479;-69
2022/06/27 05:19:53;;;;;;;12.53;11.43;;;20.60;99.90;;;;;;5112643;28;20437;-69
2022/06/27 05:22:19;;;;;;;12.80;11.50;;;20.60;99.90;;;;;;5127702;27;20505;-69
2022/06/27 05:24:48;;;;;;;11.60;10.40;;;20.60;99.90;;;;;;5136063;27;20413;-69
2022/06/27 05:27:15;;;;;;;11.03;10.10;;;20.60;99.90;;;;;;5133484;27;20524;-69
2022/06/27 05:29:41;;;;;;;11.57;10.47;;;20.60;99.90;;;;;;5123383;27;20486;-69
2022/06/27 05:32:07;;;;;;;11.97;10.90;;;20.60;99.90;;;;;;5116891;27;20420;-69
2022/06/27 05:34:33;;;;;;;12.33;11.43;;;20.70;99.90;;;;;;5124914;27;20190;-69
2022/06/27 05:36:59;;;;;;;10.73;9.73;;;20.70;99.90;;;;;;5135204;27;20456;-69
2022/06/27 05:39:24;;;;;;;12.40;11.30;;;20.80;99.90;;;;;;5133635;27;20175;-68
2022/06/27 05:41:50;;;;;;;10.87;10.07;;;21.10;99.90;;;;;;5116817;27;20512;-72
2022/06/27 05:44:16;;;;;;;12.60;11.50;;;21.30;99.90;;;;;;5116388;27;20179;-68
2022/06/27 05:46:42;;;;;;;11.57;10.57;;;21.50;99.90;;;;;;5121117;27;20224;-69
2022/06/27 05:49:11;;;;;;;12.80;11.70;;;21.60;99.90;;;;;;5098516;28;20639;-68
2022/06/27 05:51:38;;;;;;;12.43;11.37;;;21.70;99.90;;;;;;5116092;27;20790;-69
2022/06/27 05:54:05;;;;;;;13.07;12.07;;;21.80;99.90;;;;;;5114138;28;20426;-68
2022/06/27 05:56:32;;;;;;;14.60;13.40;;;21.90;99.90;;;;;;5114791;28;20445;-68
2022/06/27 05:58:58;;;;;;;14.30;13.20;;;22.00;99.90;;;;;;5100235;28;20906;-69
2022/06/27 06:01:25;;;;;;;14.73;13.50;;;22.00;99.90;;;;;;5094303;28;20916;-68
2022/06/27 06:03:52;;;;;;;19.97;18.17;;;22.10;99.90;;;;;;5107939;27;20839;-73
2022/06/27 06:06:18;;;;;;;18.43;16.70;;;22.20;99.90;;;;;;5135223;27;20963;-68
2022/06/27 06:08:43;;;;;;;23.40;21.20;;;22.30;99.90;;;;;;5123780;27;20447;-68
2022/06/27 06:11:10;;;;;;;22.67;20.57;;;22.40;99.90;;;;;;5132693;27;20423;-68
2022/06/27 06:13:36;;;;;;;22.57;20.57;;;22.40;99.90;;;;;;5118125;27;20190;-68
2022/06/27 06:16:06;;;;;;;24.47;22.20;;;22.30;99.90;;;;;;5093743;27;20434;-69
2022/06/27 06:18:33;;;;;;;23.77;21.77;;;22.20;99.90;;;;;;5108341;28;20583;-69
2022/06/27 06:20:59;;;;;;;20.43;18.63;;;22.00;99.90;;;;;;5114181;28;20485;-69
2022/06/27 06:23:25;;;;;;;20.00;18.30;;;22.00;99.90;;;;;;5113112;27;20449;-68
2022/06/27 06:25:52;;;;;;;13.20;12.00;;;22.10;99.90;;;;;;5124094;27;20203;-68
2022/06/27 06:28:18;;;;;;;20.53;18.83;;;22.00;99.90;;;;;;5125941;27;20452;-69
2022/06/27 06:30:44;;;;;;;16.33;14.83;;;22.10;99.90;;;;;;5132720;27;20439;-69
2022/06/27 06:33:10;;;;;;;19.30;17.77;;;22.20;99.90;;;;;;5121560;27;20875;-68
2022/06/27 06:35:36;;;;;;;27.33;18.50;;;22.30;99.90;;;;;;5129136;27;20421;-68
2022/06/27 06:38:03;;;;;;;18.03;16.43;;;22.30;99.90;;;;;;5128323;27;20210;-69
2022/06/27 06:40:29;;;;;;;18.53;16.73;;;22.20;99.90;;;;;;5132972;27;20424;-70
2022/06/27 06:42:55;;;;;;;23.73;19.00;;;22.00;99.90;;;;;;5118417;27;20429;-71
2022/06/27 06:45:22;;;;;;;17.33;15.73;;;21.90;99.90;;;;;;5110872;27;20478;-71
2022/06/27 06:47:50;;;;;;;18.17;16.67;;;21.80;99.90;;;;;;5110312;27;20413;-69
2022/06/27 06:50:18;;;;;;;21.07;19.07;;;21.80;99.90;;;;;;5134841;27;20739;-69
2022/06/27 06:52:49;;;;;;;20.40;18.60;;;21.70;99.90;;;;;;5076125;28;20464;-69
2022/06/27 06:55:16;;;;;;;23.53;20.67;;;21.70;99.90;;;;;;5093168;28;20456;-69
2022/06/27 06:57:42;;;;;;;23.70;21.50;;;21.60;99.90;;;;;;5093180;28;20857;-70
2022/06/27 07:00:09;;;;;;;21.60;19.60;;;21.50;99.90;;;;;;5110574;27;20503;-69
2022/06/27 07:02:36;;;;;;;22.67;20.53;;;21.60;99.90;;;;;;5114429;27;20426;-69
2022/06/27 07:05:08;;;;;;;21.53;19.40;;;21.50;99.90;;;;;;5113523;28;20421;-68
2022/06/27 07:07:34;;;;;;;21.93;20.03;;;21.30;99.90;;;;;;5117601;27;20417;-69
2022/06/27 07:10:01;;;;;;;19.67;18.07;;;21.30;99.90;;;;;;5119418;27;20430;-76
2022/06/27 07:12:29;;;;;;;25.07;22.70;;;21.20;99.90;;;;;;5125619;27;20452;-68
2022/06/27 07:14:56;;;;;;;22.50;20.40;;;21.10;99.90;;;;;;5110159;28;20437;-69
2022/06/27 07:17:25;;;;;;;24.67;22.37;;;21.10;99.90;;;;;;5113487;27;20464;-69
2022/06/27 07:19:54;;;;;;;22.90;20.80;;;21.00;99.90;;;;;;5123272;27;20952;-76
2022/06/27 07:22:23;;;;;;;23.90;21.70;;;21.00;99.90;;;;;;5123574;27;20536;-68
2022/06/27 07:24:52;;;;;;;22.77;20.73;;;20.90;99.90;;;;;;5113605;28;20408;-69
2022/06/27 07:27:18;;;;;;;26.13;23.73;;;21.00;99.90;;;;;;5113319;28;20439;-69
2022/06/27 07:29:44;;;;;;;23.43;21.23;;;20.90;99.90;;;;;;5128089;27;20493;-70
2022/06/27 07:32:10;;;;;;;23.03;20.73;;;20.90;99.90;;;;;;5106623;27;20434;-68
2022/06/27 07:34:37;;;;;;;24.33;22.03;;;20.90;99.90;;;;;;5107995;27;20630;-68
2022/06/27 07:37:04;;;;;;;23.30;21.00;;;20.90;99.90;;;;;;5120459;27;20219;-71
2022/06/27 07:39:30;;;;;;;26.00;23.70;;;20.90;99.90;;;;;;5111387;27;20429;-71
2022/06/27 07:41:56;;;;;;;22.73;20.33;;;20.90;99.90;;;;;;5130387;27;20432;-70
2022/06/27 07:44:22;;;;;;;22.93;20.70;;;20.90;99.90;;;;;;5115725;27;20421;-69
2022/06/27 07:46:48;;;;;;;22.53;20.37;;;20.90;99.90;;;;;;5116977;27;20495;-70
2022/06/27 07:49:14;;;;;;;22.53;20.50;;;20.80;99.90;;;;;;5096027;28;20433;-67
2022/06/27 07:51:41;;;;;;;22.67;20.57;;;20.80;99.90;;;;;;5096205;28;20452;-67
2022/06/27 07:54:10;;;;;;;22.83;20.63;;;20.80;99.90;;;;;;5093575;28;20429;-67
2022/06/27 07:56:37;;;;;;;27.00;24.10;;;20.80;99.90;;;;;;5095832;28;20441;-67
2022/06/27 07:59:06;;;;;;;26.90;24.40;;;20.80;99.90;;;;;;5115201;28;20514;-67
2022/06/27 08:01:32;;;;;;;25.70;23.27;;;20.80;99.90;;;;;;5093409;28;20422;-67
2022/06/27 08:03:58;;;;;;;28.97;26.27;;;20.80;99.90;;;;;;5107409;28;20420;-67
2022/06/27 08:06:29;;;;;;;27.07;24.17;;;20.80;99.90;;;;;;5128332;28;20515;-67
2022/06/27 08:08:58;;;;;;;29.97;27.00;;;20.70;99.90;;;;;;5127553;27;20440;-67
2022/06/27 08:11:26;;;;;;;51.27;36.23;;;20.80;99.90;;;;;;5107052;28;20456;-67
2022/06/27 08:13:57;;;;;;;28.13;25.33;;;20.70;99.90;;;;;;5103834;28;20465;-67
2022/06/27 08:16:25;;;;;;;29.77;26.57;;;20.80;99.90;;;;;;5104892;28;20433;-67
2022/06/27 08:18:52;;;;;;;29.63;26.47;;;20.70;99.90;;;;;;5112890;28;20558;-66
2022/06/27 08:21:21;;;;;;;27.93;24.97;;;20.70;99.90;;;;;;5108894;28;20491;-66
2022/06/27 08:23:51;;;;;;;27.67;24.97;;;20.70;99.90;;;;;;5113997;28;20436;-67
2022/06/27 08:26:17;;;;;;;56.67;42.40;;;20.70;99.90;;;;;;5109588;28;20745;-67
2022/06/27 08:28:47;;;;;;;39.27;32.37;;;20.70;99.90;;;;;;5112647;28;20759;-67
2022/06/27 08:31:14;;;;;;;30.50;27.60;;;20.80;99.90;;;;;;5131419;27;20510;-67
2022/06/27 08:33:43;;;;;;;28.30;25.40;;;20.80;99.90;;;;;;5124606;27;20422;-67
2022/06/27 08:36:10;;;;;;;27.70;25.13;;;20.80;99.90;;;;;;5093358;28;20426;-67
2022/06/27 08:39:11;;;;;;;28.40;25.53;;;20.90;99.90;;;;;;5096805;28;20460;-67
2022/06/27 08:41:28;;;;;;;30.43;25.90;;;20.90;99.90;;;;;;5113557;27;20432;-67
2022/06/27 08:43:58;;;;;;;28.87;26.07;;;20.90;99.90;;;;;;5122014;27;20426;-78
2022/06/27 08:46:24;;;;;;;28.37;25.37;;;21.00;99.90;;;;;;5103221;28;20421;-68
2022/06/27 08:48:50;;;;;;;27.97;25.27;;;21.00;99.90;;;;;;5108952;28;20459;-68
2022/06/27 08:51:18;;;;;;;25.90;23.20;;;21.00;99.90;;;;;;5098601;28;20929;-69
2022/06/27 08:53:44;;;;;;;29.67;26.60;;;21.20;99.90;;;;;;5128525;27;20413;-69
2022/06/27 08:56:13;;;;;;;32.23;29.13;;;21.40;99.90;;;;;;5133266;27;20409;-68
2022/06/27 08:58:41;;;;;;;27.27;24.47;;;21.50;99.90;;;;;;5116057;28;20449;-68
2022/06/27 09:01:07;;;;;;;30.13;27.23;;;21.70;99.90;;;;;;5115313;28;20410;-68
2022/06/27 09:03:34;;;;;;;28.70;25.80;;;21.90;99.90;;;;;;5125968;27;20428;-68
2022/06/27 09:06:03;;;;;;;30.70;27.67;;;22.00;99.90;;;;;;5113890;27;20428;-72
2022/06/27 09:08:36;;;;;;;29.30;26.50;;;22.20;99.90;;;;;;5110411;28;20461;-68
2022/06/27 09:11:03;;;;;;;27.23;24.33;;;22.30;99.90;;;;;;5130577;27;20432;-72
2022/06/27 09:13:30;;;;;;;28.17;25.37;;;22.30;99.90;;;;;;5107739;27;20774;-67
2022/06/27 09:16:03;;;;;;;26.80;24.20;;;22.20;99.90;;;;;;5111214;27;20571;-68
2022/06/27 09:18:31;;;;;;;27.73;24.90;;;22.20;99.90;;;;;;5105320;27;20900;-68
2022/06/27 09:20:58;;;;;;;32.87;29.60;;;22.00;99.90;;;;;;5104940;28;20468;-67
2022/06/27 09:23:40;;;;;;;30.67;27.57;;;22.00;99.90;;;;;;5111682;27;20429;-68
2022/06/27 09:26:06;;;;;;;26.20;23.70;;;21.80;99.90;;;;;;5120243;27;20464;-68
2022/06/27 09:28:43;;;;;;;27.80;25.20;;;21.80;99.90;;;;;;5107869;28;20468;-69
2022/06/27 09:31:15;;;;;;;28.43;25.73;;;21.70;99.90;;;;;;5116642;27;20241;-69
2022/06/27 09:33:42;;;;;;;26.37;23.90;;;21.60;99.90;;;;;;5126283;27;20643;-68
2022/06/27 09:36:09;;;;;;;28.90;26.40;;;21.60;99.90;;;;;;5114464;28;20405;-68
2022/06/27 09:38:39;;;;;;;30.40;27.50;;;21.50;99.90;;;;;;5115303;28;20445;-67
2022/06/27 09:41:08;;;;;;;30.53;27.53;;;21.40;99.90;;;;;;5114912;28;20515;-67
2022/06/27 09:43:35;;;;;;;29.73;26.83;;;21.40;99.90;;;;;;5115398;28;20394;-68
2022/06/27 09:46:03;;;;;;;27.80;25.00;;;21.30;99.90;;;;;;5113849;28;20945;-72
2022/06/27 09:48:30;;;;;;;29.07;26.10;;;21.30;99.90;;;;;;5113928;28;20401;-68
2022/06/27 09:50:57;;;;;;;27.60;24.80;;;21.20;99.90;;;;;;5114236;28;20412;-68
2022/06/27 09:53:27;;;;;;;29.60;26.80;;;21.20;99.90;;;;;;5114782;28;20878;-69
2022/06/27 09:55:54;;;;;;;28.13;25.27;;;21.20;99.90;;;;;;5113444;28;20437;-67
2022/06/27 09:58:20;;;;;;;30.10;27.10;;;21.20;99.90;;;;;;5114704;28;20451;-68
2022/06/27 10:00:47;;;;;;;30.30;27.03;;;21.10;99.90;;;;;;5115132;28;20863;-68
2022/06/27 10:03:13;;;;;;;28.47;25.47;;;21.10;99.90;;;;;;5113324;28;20415;-68
2022/06/27 10:05:41;;;;;;;29.17;26.27;;;21.10;99.90;;;;;;5115266;28;20414;-68
2022/06/27 10:08:08;;;;;;;27.20;24.40;;;21.10;99.90;;;;;;5114340;28;20896;-68
2022/06/27 10:11:09;;;;;;;29.67;26.67;;;21.00;99.90;;;;;;5115133;28;20496;-68
2022/06/27 10:13:42;;;;;;;29.20;26.27;;;21.00;99.90;;;;;;5115038;28;20960;-69
2022/06/27 10:16:17;;;;;;;28.97;26.10;;;21.00;99.90;;;;;;5113095;28;20413;-68
2022/06/27 10:19:03;;;;;;;26.97;24.17;;;21.00;99.90;;;;;;5113202;28;20472;-68
2022/06/27 10:21:32;;;;;;;28.67;25.80;;;21.00;99.90;;;;;;5114688;28;20465;-68
2022/06/27 10:24:26;;;;;;;28.53;23.63;;;21.00;99.90;;;;;;5114791;28;20405;-68
2022/06/27 10:27:03;;;;;;;27.70;24.87;;;21.00;99.90;;;;;;5113634;28;20508;-67
2022/06/27 10:29:29;;;;;;;26.67;23.97;;;21.10;99.90;;;;;;5114625;28;20434;-68
2022/06/27 10:31:56;;;;;;;25.97;23.20;;;21.10;99.90;;;;;;5114387;28;20410;-69
2022/06/27 10:34:40;;;;;;;24.50;22.07;;;21.20;99.90;;;;;;5112907;28;20172;-69
2022/06/27 10:37:21;;;;;;;26.37;23.67;;;21.20;99.90;;;;;;5113661;28;20936;-67
2022/06/27 10:39:48;;;;;;;26.60;23.80;;;21.30;99.90;;;;;;5114453;28;20444;-68
2022/06/27 10:42:45;;;;;;;26.53;23.77;;;21.30;99.90;;;;;;5113537;28;20405;-68
2022/06/27 10:45:20;;;;;;;25.77;23.13;;;21.20;99.90;;;;;;5113871;27;20482;-68
2022/06/27 10:47:50;;;;;;;26.07;23.37;;;21.30;99.90;;;;;;5114319;28;20455;-67
2022/06/27 10:50:18;;;;;;;30.57;27.33;;;21.30;99.90;;;;;;5113401;27;20567;-68
2022/06/27 10:52:46;;;;;;;26.77;23.40;;;21.40;99.90;;;;;;5114239;28;20398;-68
2022/06/27 10:55:26;;;;;;;24.63;22.23;;;21.40;99.90;;;;;;5113583;28;20405;-68
2022/06/27 10:57:54;;;;;;;24.70;22.10;;;21.50;99.90;;;;;;5093415;28;20438;-68
2022/06/27 11:00:35;;;;;;;24.47;21.93;;;21.50;99.90;;;;;;5096313;28;20428;-68
2022/06/27 11:03:01;;;;;;;23.40;20.90;;;21.50;99.90;;;;;;5113994;28;20412;-68
2022/06/27 11:05:29;;;;;;;22.60;20.40;;;21.60;99.90;;;;;;5113416;28;20405;-68
2022/06/27 11:07:55;;;;;;;22.93;20.33;;;21.60;99.90;;;;;;5113916;28;20397;-68
2022/06/27 11:10:21;;;;;;;23.83;21.37;;;21.60;99.90;;;;;;5113615;28;20410;-68
2022/06/27 11:12:47;;;;;;;24.17;21.57;;;21.50;99.90;;;;;;5113834;28;20390;-68
2022/06/27 11:15:12;;;;;;;22.27;20.03;;;21.60;99.90;;;;;;5112027;28;20463;-68
2022/06/27 11:17:42;;;;;;;22.30;20.10;;;21.50;99.90;;;;;;5111886;28;20219;-68
2022/06/27 11:20:25;;;;;;;22.47;20.30;;;21.50;99.90;;;;;;5112980;28;20224;-68
2022/06/27 11:22:56;;;;;;;22.13;20.03;;;21.50;99.90;;;;;;5113632;28;20783;-67
2022/06/27 11:25:24;;;;;;;21.20;19.27;;;21.50;99.90;;;;;;5113152;28;20450;-68
2022/06/27 11:27:54;;;;;;;22.50;20.20;;;21.60;99.90;;;;;;5113431;28;20412;-68
2022/06/27 11:33:29;;;;;;;21.40;19.60;;;21.60;99.90;;;;;;5112812;28;20385;-69
2022/06/27 11:36:01;;;;;;;20.73;18.80;;;21.60;99.90;;;;;;5113591;28;20464;-69
2022/06/27 11:38:31;;;;;;;22.13;20.13;;;21.60;99.90;;;;;;5112867;28;20498;-68
2022/06/27 11:41:13;;;;;;;22.77;20.70;;;21.70;99.90;;;;;;5113503;28;20402;-68
2022/06/27 11:43:57;;;;;;;21.30;19.20;;;21.70;99.90;;;;;;5113299;28;20405;-68
2022/06/27 11:46:36;;;;;;;21.60;19.70;;;21.80;99.90;;;;;;5112980;28;20397;-68
2022/06/27 11:49:11;;;;;;;21.00;19.00;;;21.80;99.90;;;;;;5113491;28;20421;-68
2022/06/27 11:51:46;;;;;;;20.90;18.83;;;21.80;99.90;;;;;;5113340;28;20412;-68
2022/06/27 11:54:17;;;;;;;19.47;17.73;;;21.80;99.90;;;;;;5111297;28;20868;-68
2022/06/27 11:56:51;;;;;;;19.80;17.90;;;21.80;99.90;;;;;;5110206;28;20470;-69
2022/06/27 11:59:18;;;;;;;19.10;17.27;;;21.90;99.90;;;;;;5110888;28;20841;-69
2022/06/27 12:02:03;;;;;;;22.30;20.30;;;21.80;99.90;;;;;;5112955;28;20840;-69
2022/06/27 12:04:33;;;;;;;18.90;17.07;;;21.90;99.90;;;;;;5112721;28;20397;-68
2022/06/27 12:07:09;;;;;;;21.67;19.87;;;21.80;99.90;;;;;;5112836;28;20413;-68
2022/06/27 12:09:50;;;;;;;20.10;18.20;;;21.90;99.90;;;;;;5113130;28;20749;-68
2022/06/27 12:12:25;;;;;;;22.13;19.93;;;21.80;99.90;;;;;;5114129;28;20390;-68
2022/06/27 12:14:53;;;;;;;28.33;25.40;;;21.90;99.90;;;;;;5117138;28;20412;-68
2022/06/27 12:17:20;;;;;;;26.90;24.23;;;21.90;99.90;;;;;;5116492;28;20468;-68
2022/06/27 12:19:46;;;;;;;25.77;23.27;;;21.90;99.90;;;;;;5116953;28;20410;-68
2022/06/27 12:22:17;;;;;;;28.63;23.70;;;21.90;99.90;;;;;;5116686;28;20451;-69
2022/06/27 12:24:44;;;;;;;23.90;21.60;;;21.90;99.90;;;;;;5116158;28;20413;-68
2022/06/27 12:27:11;;;;;;;26.50;23.80;;;21.90;99.90;;;;;;5114779;28;20432;-68
2022/06/27 12:29:36;;;;;;;28.83;26.00;;;21.90;99.90;;;;;;5112722;28;20931;-68
2022/06/27 12:32:02;;;;;;;29.00;26.00;;;21.90;99.90;;;;;;5104807;27;20503;-68
2022/06/27 12:34:30;;;;;;;27.87;25.00;;;21.90;99.90;;;;;;5114329;27;20631;-69
2022/06/27 12:36:56;;;;;;;26.10;23.60;;;21.90;99.90;;;;;;5103519;28;20437;-68
2022/06/27 12:39:23;;;;;;;30.07;27.17;;;21.90;99.90;;;;;;5099429;28;20521;-69
2022/06/27 12:41:50;;;;;;;31.13;27.90;;;21.90;99.90;;;;;;5131675;27;20179;-68